createdAt,value
2023-04-07T00:00:44.629Z,934.36
2023-04-07T00:01:44.709Z,934.29
2023-04-07T00:02:44.898Z,934.30
2023-04-07T00:03:44.865Z,934.29
2023-04-07T00:04:44.713Z,934.24
2023-04-07T00:05:44.712Z,934.23
2023-04-07T00:06:44.716Z,934.29
2023-04-07T00:07:55.158Z,934.24
2023-04-07T00:08:44.757Z,934.24
2023-04-07T00:09:44.765Z,934.24
2023-04-07T00:10:44.812Z,934.26
2023-04-07T00:11:44.803Z,934.31
2023-04-07T00:12:44.812Z,934.28
2023-04-07T00:13:44.839Z,934.36
2023-04-07T00:14:44.845Z,934.34
2023-04-07T00:15:44.900Z,934.32
2023-04-07T00:16:44.886Z,934.33
2023-04-07T00:17:44.914Z,934.33
2023-04-07T00:18:44.907Z,934.35
2023-04-07T00:19:44.936Z,934.40
2023-04-07T00:20:44.940Z,934.39
2023-04-07T00:21:44.967Z,934.43
2023-04-07T00:22:44.976Z,934.45
2023-04-07T00:23:45.022Z,934.44
2023-04-07T00:24:45.003Z,934.43
2023-04-07T00:25:45.047Z,934.39
2023-04-07T00:26:45.054Z,934.39
2023-04-07T00:27:45.048Z,934.35
2023-04-07T00:28:45.072Z,934.29
2023-04-07T00:29:45.081Z,934.22
2023-04-07T00:30:45.104Z,934.21
2023-04-07T00:31:45.145Z,934.22
2023-04-07T00:32:45.500Z,934.18
2023-04-07T00:33:45.150Z,934.18
2023-04-07T00:34:45.167Z,934.18
2023-04-07T00:35:45.229Z,934.21
2023-04-07T00:36:45.203Z,934.15
2023-04-07T00:37:45.214Z,934.15
2023-04-07T00:38:45.231Z,934.15
2023-04-07T00:39:45.251Z,934.14
2023-04-07T00:40:45.255Z,934.14
2023-04-07T00:41:45.269Z,934.13
2023-04-07T00:42:45.306Z,934.16
2023-04-07T00:43:45.300Z,934.22
2023-04-07T00:44:45.326Z,934.20
2023-04-07T00:45:45.339Z,934.20
2023-04-07T00:46:45.438Z,934.24
2023-04-07T00:47:45.409Z,934.23
2023-04-07T00:48:45.386Z,934.26
2023-04-07T00:49:45.409Z,934.31
2023-04-07T00:50:45.410Z,934.31
2023-04-07T00:51:45.426Z,934.33
2023-04-07T00:52:45.442Z,934.32
2023-04-07T00:53:45.459Z,934.41
2023-04-07T00:54:45.481Z,934.39
2023-04-07T00:55:45.497Z,934.45
2023-04-07T00:56:45.515Z,934.43
2023-04-07T00:57:46.337Z,934.49
2023-04-07T00:58:45.555Z,934.46
2023-04-07T00:59:45.561Z,934.46
2023-04-07T01:00:45.570Z,934.47
2023-04-07T01:01:45.684Z,934.47
2023-04-07T01:02:45.889Z,934.44
2023-04-07T01:03:45.868Z,934.40
2023-04-07T01:04:45.719Z,934.40
2023-04-07T01:05:46.003Z,934.33
2023-04-07T01:06:45.668Z,934.35
2023-04-07T01:07:45.677Z,934.28
2023-04-07T01:08:45.703Z,934.27
2023-04-07T01:09:45.707Z,934.24
2023-04-07T01:10:45.721Z,934.25
2023-04-07T01:11:45.846Z,934.17
2023-04-07T01:12:45.819Z,934.19
2023-04-07T01:13:45.776Z,934.14
2023-04-07T01:14:45.830Z,934.15
2023-04-07T01:15:45.851Z,934.17
2023-04-07T01:16:45.835Z,934.14
2023-04-07T01:17:45.867Z,934.16
2023-04-07T01:18:45.854Z,934.16
2023-04-07T01:19:45.868Z,934.15
2023-04-07T01:20:45.886Z,934.14
2023-04-07T01:21:45.918Z,934.17
2023-04-07T01:22:45.913Z,934.21
2023-04-07T01:23:45.932Z,934.20
2023-04-07T01:24:45.940Z,934.22
2023-04-07T01:25:45.965Z,934.22
2023-04-07T01:26:45.978Z,934.22
2023-04-07T01:27:45.989Z,934.21
2023-04-07T01:28:46.010Z,934.23
2023-04-07T01:29:46.034Z,934.30
2023-04-07T01:30:46.088Z,934.28
2023-04-07T01:31:46.124Z,934.30
2023-04-07T01:32:46.108Z,934.30
2023-04-07T01:33:46.083Z,934.33
2023-04-07T01:34:46.104Z,934.36
2023-04-07T01:35:46.111Z,934.33
2023-04-07T01:36:46.164Z,934.31
2023-04-07T01:37:46.152Z,934.38
2023-04-07T01:38:46.208Z,934.39
2023-04-07T01:39:46.184Z,934.41
2023-04-07T01:40:46.192Z,934.45
2023-04-07T01:41:46.214Z,934.47
2023-04-07T01:42:46.282Z,934.44
2023-04-07T01:43:46.458Z,934.45
2023-04-07T01:44:46.261Z,934.46
2023-04-07T01:45:46.294Z,934.48
2023-04-07T01:46:46.312Z,934.42
2023-04-07T01:47:46.336Z,934.44
2023-04-07T01:48:46.328Z,934.45
2023-04-07T01:49:46.337Z,934.37
2023-04-07T01:50:46.357Z,934.36
2023-04-07T01:51:46.374Z,934.37
2023-04-07T01:52:46.383Z,934.35
2023-04-07T01:53:46.401Z,934.36
2023-04-07T01:54:46.425Z,934.37
2023-04-07T01:55:46.445Z,934.31
2023-04-07T01:56:46.448Z,934.31
2023-04-07T01:57:46.481Z,934.24
2023-04-07T01:58:46.484Z,934.21
2023-04-07T01:59:46.501Z,934.20
2023-04-07T02:00:46.527Z,934.18
2023-04-07T02:01:46.645Z,934.18
2023-04-07T02:02:46.700Z,934.17
2023-04-07T02:03:46.615Z,934.19
2023-04-07T02:04:46.572Z,934.18
2023-04-07T02:05:46.596Z,934.18
2023-04-07T02:06:46.604Z,934.19
2023-04-07T02:07:46.624Z,934.17
2023-04-07T02:08:46.642Z,934.21
2023-04-07T02:09:46.661Z,934.18
2023-04-07T02:10:46.665Z,934.21
2023-04-07T02:11:46.680Z,934.19
2023-04-07T02:12:46.704Z,934.30
2023-04-07T02:13:46.714Z,934.24
2023-04-07T02:14:46.734Z,934.21
2023-04-07T02:15:46.760Z,934.22
2023-04-07T02:16:48.819Z,934.17
2023-04-07T02:17:46.792Z,934.13
2023-04-07T02:18:46.823Z,934.10
2023-04-07T02:19:46.815Z,934.09
2023-04-07T02:20:46.830Z,934.08
2023-04-07T02:21:46.852Z,934.12
2023-04-07T02:22:46.855Z,934.07
2023-04-07T02:23:46.894Z,934.09
2023-04-07T02:24:46.894Z,934.07
2023-04-07T02:25:46.899Z,934.10
2023-04-07T02:26:46.913Z,934.15
2023-04-07T02:27:46.941Z,934.11
2023-04-07T02:28:46.955Z,934.16
2023-04-07T02:29:46.968Z,934.18
2023-04-07T02:30:46.996Z,934.19
2023-04-07T02:31:47.039Z,934.22
2023-04-07T02:32:47.072Z,934.21
2023-04-07T02:33:47.034Z,934.27
2023-04-07T02:34:47.068Z,934.29
2023-04-07T02:35:47.060Z,934.26
2023-04-07T02:36:47.128Z,934.25
2023-04-07T02:37:47.086Z,934.27
2023-04-07T02:38:47.101Z,934.17
2023-04-07T02:39:47.127Z,934.16
2023-04-07T02:40:47.136Z,934.13
2023-04-07T02:41:47.147Z,934.13
2023-04-07T02:42:47.175Z,934.11
2023-04-07T02:43:47.183Z,934.08
2023-04-07T02:44:47.196Z,934.04
2023-04-07T02:45:47.321Z,934.06
2023-04-07T02:46:47.225Z,934.04
2023-04-07T02:47:47.330Z,934.07
2023-04-07T02:48:47.260Z,934.02
2023-04-07T02:49:47.272Z,934.04
2023-04-07T02:50:47.309Z,934.01
2023-04-07T02:51:47.304Z,934.04
2023-04-07T02:52:47.325Z,934.08
2023-04-07T02:53:47.333Z,934.06
2023-04-07T02:54:47.965Z,934.02
2023-04-07T02:55:47.363Z,934.06
2023-04-07T02:56:47.378Z,933.95
2023-04-07T02:57:47.404Z,934.01
2023-04-07T02:58:47.417Z,933.98
2023-04-07T02:59:47.433Z,933.93
2023-04-07T03:00:49.052Z,933.92
2023-04-07T03:01:47.606Z,933.90
2023-04-07T03:02:47.681Z,933.89
2023-04-07T03:03:47.612Z,933.86
2023-04-07T03:04:47.526Z,933.83
2023-04-07T03:05:47.520Z,933.82
2023-04-07T03:06:47.580Z,933.82
2023-04-07T03:07:47.560Z,933.69
2023-04-07T03:08:47.572Z,933.68
2023-04-07T03:09:47.601Z,933.63
2023-04-07T03:10:47.602Z,933.62
2023-04-07T03:11:47.619Z,933.61
2023-04-07T03:12:47.626Z,933.59
2023-04-07T03:13:47.647Z,933.61
2023-04-07T03:14:47.656Z,933.58
2023-04-07T03:15:47.672Z,933.60
2023-04-07T03:16:47.719Z,933.61
2023-04-07T03:17:47.770Z,933.61
2023-04-07T03:18:47.718Z,933.60
2023-04-07T03:19:47.744Z,933.59
2023-04-07T03:20:47.759Z,933.59
2023-04-07T03:21:47.767Z,933.58
2023-04-07T03:22:47.802Z,933.55
2023-04-07T03:23:47.805Z,933.56
2023-04-07T03:24:47.811Z,933.57
2023-04-07T03:25:48.776Z,933.59
2023-04-07T03:26:47.845Z,933.62
2023-04-07T03:27:47.861Z,933.61
2023-04-07T03:28:47.877Z,933.63
2023-04-07T03:29:47.915Z,933.65
2023-04-07T03:30:47.986Z,933.66
2023-04-07T03:31:47.922Z,933.66
2023-04-07T03:32:48.005Z,933.67
2023-04-07T03:33:47.954Z,933.68
2023-04-07T03:34:47.969Z,933.66
2023-04-07T03:35:48.024Z,933.65
2023-04-07T03:36:47.998Z,933.64
2023-04-07T03:37:48.021Z,933.61
2023-04-07T03:38:48.058Z,933.59
2023-04-07T03:39:48.700Z,933.62
2023-04-07T03:40:48.070Z,933.59
2023-04-07T03:41:48.088Z,933.59
2023-04-07T03:42:48.093Z,933.59
2023-04-07T03:43:48.126Z,933.61
2023-04-07T03:44:48.125Z,933.64
2023-04-07T03:45:48.180Z,933.65
2023-04-07T03:46:48.220Z,933.65
2023-04-07T03:47:48.189Z,933.63
2023-04-07T03:48:48.186Z,933.65
2023-04-07T03:49:48.221Z,933.62
2023-04-07T03:50:48.231Z,933.65
2023-04-07T03:51:48.232Z,933.64
2023-04-07T03:52:48.259Z,933.64
2023-04-07T03:53:48.274Z,933.67
2023-04-07T03:54:48.304Z,933.63
2023-04-07T03:55:48.304Z,933.63
2023-04-07T03:56:48.312Z,933.60
2023-04-07T03:57:48.333Z,933.56
2023-04-07T03:58:48.345Z,933.53
2023-04-07T03:59:48.363Z,933.54
2023-04-07T04:00:48.380Z,933.51
2023-04-07T04:01:48.437Z,933.52
2023-04-07T04:02:48.453Z,933.47
2023-04-07T04:03:48.577Z,933.48
2023-04-07T04:04:48.485Z,933.49
2023-04-07T04:05:48.467Z,933.48
2023-04-07T04:06:48.466Z,933.46
2023-04-07T04:07:48.490Z,933.47
2023-04-07T04:08:48.498Z,933.51
2023-04-07T04:09:48.518Z,933.48
2023-04-07T04:10:48.560Z,933.43
2023-04-07T04:11:48.548Z,933.46
2023-04-07T04:12:48.571Z,933.47
2023-04-07T04:13:48.586Z,933.47
2023-04-07T04:14:48.617Z,933.48
2023-04-07T04:15:48.659Z,933.51
2023-04-07T04:16:48.642Z,933.47
2023-04-07T04:17:48.659Z,933.46
2023-04-07T04:18:48.665Z,933.44
2023-04-07T04:19:48.680Z,933.46
2023-04-07T04:20:48.701Z,933.43
2023-04-07T04:21:48.705Z,933.42
2023-04-07T04:22:48.727Z,933.44
2023-04-07T04:23:48.732Z,933.41
2023-04-07T04:24:48.769Z,933.43
2023-04-07T04:25:48.764Z,933.42
2023-04-07T04:26:48.800Z,933.42
2023-04-07T04:27:48.802Z,933.34
2023-04-07T04:28:48.818Z,933.32
2023-04-07T04:29:48.837Z,933.32
2023-04-07T04:30:48.839Z,933.34
2023-04-07T04:31:48.957Z,933.31
2023-04-07T04:32:48.919Z,933.30
2023-04-07T04:33:48.892Z,933.31
2023-04-07T04:34:48.900Z,933.34
2023-04-07T04:35:48.919Z,933.34
2023-04-07T04:36:49.069Z,933.32
2023-04-07T04:37:48.978Z,933.36
2023-04-07T04:38:48.981Z,933.37
2023-04-07T04:39:48.984Z,933.36
2023-04-07T04:40:48.996Z,933.41
2023-04-07T04:41:49.023Z,933.41
2023-04-07T04:42:49.054Z,933.40
2023-04-07T04:43:49.047Z,933.37
2023-04-07T04:44:49.070Z,933.34
2023-04-07T04:45:49.081Z,933.31
2023-04-07T04:46:49.117Z,933.24
2023-04-07T04:47:49.131Z,933.16
2023-04-07T04:48:49.118Z,933.15
2023-04-07T04:49:49.132Z,933.13
2023-04-07T04:50:49.153Z,933.13
2023-04-07T04:51:49.163Z,933.14
2023-04-07T04:52:49.184Z,933.12
2023-04-07T04:53:49.197Z,933.10
2023-04-07T04:54:49.220Z,933.11
2023-04-07T04:55:49.230Z,933.11
2023-04-07T04:56:49.239Z,933.12
2023-04-07T04:57:49.263Z,933.19
2023-04-07T04:58:49.299Z,933.22
2023-04-07T04:59:49.444Z,933.21
2023-04-07T05:00:49.314Z,933.27
2023-04-07T05:01:49.355Z,933.30
2023-04-07T05:02:49.614Z,933.33
2023-04-07T05:03:49.453Z,933.37
2023-04-07T05:04:49.714Z,933.32
2023-04-07T05:05:49.388Z,933.36
2023-04-07T05:06:49.392Z,933.32
2023-04-07T05:07:49.423Z,933.30
2023-04-07T05:08:49.431Z,933.30
2023-04-07T05:09:49.440Z,933.28
2023-04-07T05:10:49.454Z,933.29
2023-04-07T05:11:49.477Z,933.29
2023-04-07T05:12:49.488Z,933.26
2023-04-07T05:13:49.512Z,933.21
2023-04-07T05:14:49.538Z,933.20
2023-04-07T05:15:49.574Z,933.18
2023-04-07T05:16:49.549Z,933.11
2023-04-07T05:17:49.615Z,933.08
2023-04-07T05:18:49.585Z,933.01
2023-04-07T05:19:49.595Z,932.98
2023-04-07T05:20:49.615Z,932.93
2023-04-07T05:21:49.638Z,932.87
2023-04-07T05:22:49.645Z,932.87
2023-04-07T05:23:50.001Z,932.80
2023-04-07T05:24:49.671Z,932.77
2023-04-07T05:25:49.697Z,932.71
2023-04-07T05:26:49.706Z,932.67
2023-04-07T05:27:49.715Z,932.61
2023-04-07T05:28:49.730Z,932.68
2023-04-07T05:29:49.754Z,932.65
2023-04-07T05:30:49.793Z,932.61
2023-04-07T05:31:49.810Z,932.58
2023-04-07T05:32:49.862Z,932.56
2023-04-07T05:33:50.169Z,932.58
2023-04-07T05:34:49.822Z,932.58
2023-04-07T05:35:49.856Z,932.63
2023-04-07T05:36:49.856Z,932.65
2023-04-07T05:37:49.881Z,932.64
2023-04-07T05:38:49.884Z,932.66
2023-04-07T05:39:49.913Z,932.66
2023-04-07T05:40:49.920Z,932.65
2023-04-07T05:41:49.931Z,932.70
2023-04-07T05:42:49.952Z,932.72
2023-04-07T05:43:50.149Z,932.71
2023-04-07T05:44:49.976Z,932.70
2023-04-07T05:45:50.008Z,932.69
2023-04-07T05:46:50.038Z,932.74
2023-04-07T05:47:50.096Z,932.69
2023-04-07T05:48:50.039Z,932.72
2023-04-07T05:49:50.056Z,932.68
2023-04-07T05:50:50.077Z,932.69
2023-04-07T05:51:50.093Z,932.72
2023-04-07T05:52:50.107Z,932.74
2023-04-07T05:53:50.379Z,932.75
2023-04-07T05:54:50.483Z,932.75
2023-04-07T05:55:50.151Z,932.76
2023-04-07T05:56:50.169Z,932.79
2023-04-07T05:57:50.184Z,932.78
2023-04-07T05:58:50.192Z,932.78
2023-04-07T05:59:50.216Z,932.80
2023-04-07T06:00:50.230Z,932.80
2023-04-07T06:01:50.279Z,932.86
2023-04-07T06:02:50.520Z,932.82
2023-04-07T06:03:50.457Z,932.85
2023-04-07T06:04:50.282Z,932.84
2023-04-07T06:05:50.311Z,932.84
2023-04-07T06:06:50.329Z,932.85
2023-04-07T06:07:50.342Z,932.84
2023-04-07T06:08:50.345Z,932.84
2023-04-07T06:09:50.374Z,932.85
2023-04-07T06:10:50.384Z,932.82
2023-04-07T06:11:50.399Z,932.85
2023-04-07T06:12:50.417Z,932.86
2023-04-07T06:13:50.775Z,932.82
2023-04-07T06:14:50.445Z,932.82
2023-04-07T06:15:50.452Z,932.83
2023-04-07T06:16:50.506Z,932.83
2023-04-07T06:17:50.528Z,932.78
2023-04-07T06:18:50.538Z,932.78
2023-04-07T06:19:50.519Z,932.77
2023-04-07T06:20:50.546Z,932.73
2023-04-07T06:21:50.549Z,932.76
2023-04-07T06:22:50.564Z,932.70
2023-04-07T06:23:50.933Z,932.69
2023-04-07T06:24:50.610Z,932.72
2023-04-07T06:25:50.615Z,932.73
2023-04-07T06:26:50.627Z,932.70
2023-04-07T06:27:50.644Z,932.70
2023-04-07T06:28:50.653Z,932.68
2023-04-07T06:29:50.679Z,932.67
2023-04-07T06:30:50.794Z,932.67
2023-04-07T06:31:50.709Z,932.69
2023-04-07T06:32:50.795Z,932.71
2023-04-07T06:33:51.256Z,932.71
2023-04-07T06:34:50.779Z,932.77
2023-04-07T06:35:50.757Z,932.69
2023-04-07T06:36:50.804Z,932.69
2023-04-07T06:37:50.795Z,932.72
2023-04-07T06:38:50.809Z,932.69
2023-04-07T06:39:50.817Z,932.69
2023-04-07T06:40:50.836Z,932.67
2023-04-07T06:41:50.856Z,932.70
2023-04-07T06:42:50.871Z,932.73
2023-04-07T06:43:50.884Z,932.66
2023-04-07T06:44:50.909Z,932.70
2023-04-07T06:45:50.945Z,932.67
2023-04-07T06:46:50.936Z,932.67
2023-04-07T06:47:50.963Z,932.71
2023-04-07T06:48:50.955Z,932.69
2023-04-07T06:49:51.180Z,932.72
2023-04-07T06:50:51.013Z,932.67
2023-04-07T06:51:51.010Z,932.67
2023-04-07T06:52:51.024Z,932.63
2023-04-07T06:53:51.032Z,932.62
2023-04-07T06:54:51.057Z,932.64
2023-04-07T06:55:51.070Z,932.63
2023-04-07T06:56:51.897Z,932.66
2023-04-07T06:57:51.109Z,932.62
2023-04-07T06:58:51.128Z,932.61
2023-04-07T06:59:51.134Z,932.63
2023-04-07T07:00:51.139Z,932.56
2023-04-07T07:01:51.228Z,932.55
2023-04-07T07:02:51.260Z,932.52
2023-04-07T07:03:51.512Z,932.52
2023-04-07T07:04:51.210Z,932.52
2023-04-07T07:05:51.226Z,932.54
2023-04-07T07:06:51.247Z,932.54
2023-04-07T07:07:51.244Z,932.58
2023-04-07T07:08:51.269Z,932.59
2023-04-07T07:09:51.312Z,932.57
2023-04-07T07:10:51.299Z,932.60
2023-04-07T07:11:51.306Z,932.61
2023-04-07T07:12:51.349Z,932.62
2023-04-07T07:13:51.344Z,932.60
2023-04-07T07:14:51.359Z,932.59
2023-04-07T07:15:51.466Z,932.58
2023-04-07T07:16:51.385Z,932.57
2023-04-07T07:17:51.444Z,932.57
2023-04-07T07:18:51.465Z,932.59
2023-04-07T07:19:51.429Z,932.61
2023-04-07T07:20:51.451Z,932.61
2023-04-07T07:21:51.466Z,932.61
2023-04-07T07:22:51.504Z,932.60
2023-04-07T07:23:51.493Z,932.61
2023-04-07T07:24:51.514Z,932.61
2023-04-07T07:25:51.518Z,932.60
2023-04-07T07:26:51.544Z,932.63
2023-04-07T07:27:51.551Z,932.63
2023-04-07T07:28:51.595Z,932.60
2023-04-07T07:29:51.583Z,932.63
2023-04-07T07:30:51.645Z,932.59
2023-04-07T07:31:51.703Z,932.53
2023-04-07T07:32:51.653Z,932.47
2023-04-07T07:33:51.666Z,932.42
2023-04-07T07:34:51.663Z,932.40
2023-04-07T07:35:51.685Z,932.41
2023-04-07T07:36:51.689Z,932.36
2023-04-07T07:37:51.723Z,932.35
2023-04-07T07:38:51.739Z,932.32
2023-04-07T07:39:51.740Z,932.34
2023-04-07T07:40:51.769Z,932.33
2023-04-07T07:41:51.775Z,932.34
2023-04-07T07:42:51.780Z,932.31
2023-04-07T07:43:51.798Z,932.35
2023-04-07T07:44:51.808Z,932.33
2023-04-07T07:45:51.826Z,932.32
2023-04-07T07:46:51.985Z,932.33
2023-04-07T07:47:51.881Z,932.33
2023-04-07T07:48:51.877Z,932.34
2023-04-07T07:49:51.885Z,932.33
2023-04-07T07:50:51.906Z,932.37
2023-04-07T07:51:51.913Z,932.34
2023-04-07T07:52:51.934Z,932.33
2023-04-07T07:53:51.945Z,932.34
2023-04-07T07:54:51.979Z,932.32
2023-04-07T07:55:51.973Z,932.32
2023-04-07T07:56:51.999Z,932.28
2023-04-07T07:57:52.013Z,932.29
2023-04-07T07:58:52.020Z,932.28
2023-04-07T07:59:52.032Z,932.29
2023-04-07T08:00:52.049Z,932.31
2023-04-07T08:01:52.432Z,932.33
2023-04-07T08:02:52.121Z,932.31
2023-04-07T08:03:52.689Z,932.37
2023-04-07T08:04:52.134Z,932.34
2023-04-07T08:05:52.126Z,932.32
2023-04-07T08:06:52.144Z,932.31
2023-04-07T08:07:54.229Z,932.29
2023-04-07T08:08:52.185Z,932.33
2023-04-07T08:09:52.193Z,932.27
2023-04-07T08:10:52.229Z,932.24
2023-04-07T08:11:52.222Z,932.24
2023-04-07T08:12:52.238Z,932.24
2023-04-07T08:13:52.254Z,932.26
2023-04-07T08:14:52.270Z,932.21
2023-04-07T08:15:52.274Z,932.18
2023-04-07T08:16:52.302Z,932.22
2023-04-07T08:17:54.734Z,932.22
2023-04-07T08:18:52.323Z,932.21
2023-04-07T08:19:52.352Z,932.26
2023-04-07T08:20:52.361Z,932.27
2023-04-07T08:21:52.370Z,932.30
2023-04-07T08:22:52.395Z,932.25
2023-04-07T08:23:52.411Z,932.27
2023-04-07T08:24:52.418Z,932.25
2023-04-07T08:25:52.444Z,932.29
2023-04-07T08:26:52.477Z,932.27
2023-04-07T08:27:52.458Z,932.28
2023-04-07T08:28:52.478Z,932.32
2023-04-07T08:29:52.485Z,932.35
2023-04-07T08:30:52.502Z,932.34
2023-04-07T08:31:52.635Z,932.37
2023-04-07T08:32:52.576Z,932.41
2023-04-07T08:33:52.562Z,932.45
2023-04-07T08:34:52.560Z,932.44
2023-04-07T08:35:52.616Z,932.50
2023-04-07T08:36:52.594Z,932.53
2023-04-07T08:37:52.614Z,932.53
2023-04-07T08:38:52.628Z,932.54
2023-04-07T08:39:52.637Z,932.53
2023-04-07T08:40:52.662Z,932.53
2023-04-07T08:41:52.675Z,932.49
2023-04-07T08:42:52.739Z,932.48
2023-04-07T08:43:52.708Z,932.47
2023-04-07T08:44:52.718Z,932.48
2023-04-07T08:45:53.703Z,932.46
2023-04-07T08:46:52.803Z,932.50
2023-04-07T08:47:52.804Z,932.47
2023-04-07T08:48:52.779Z,932.47
2023-04-07T08:49:52.801Z,932.44
2023-04-07T08:50:52.997Z,932.45
2023-04-07T08:51:52.817Z,932.46
2023-04-07T08:52:52.835Z,932.43
2023-04-07T08:53:52.860Z,932.41
2023-04-07T08:54:52.863Z,932.42
2023-04-07T08:55:52.886Z,932.42
2023-04-07T08:56:52.901Z,932.41
2023-04-07T08:57:52.925Z,932.38
2023-04-07T08:58:52.948Z,932.39
2023-04-07T08:59:52.939Z,932.38
2023-04-07T09:00:52.997Z,932.38
2023-04-07T09:01:53.009Z,932.39
2023-04-07T09:02:53.033Z,932.36
2023-04-07T09:03:53.162Z,932.37
2023-04-07T09:04:53.025Z,932.37
2023-04-07T09:05:53.028Z,932.38
2023-04-07T09:06:53.054Z,932.39
2023-04-07T09:07:53.058Z,932.43
2023-04-07T09:08:53.885Z,932.45
2023-04-07T09:09:53.095Z,932.40
2023-04-07T09:10:53.110Z,932.40
2023-04-07T09:11:53.124Z,932.42
2023-04-07T09:12:53.132Z,932.46
2023-04-07T09:13:53.167Z,932.46
2023-04-07T09:14:53.182Z,932.50
2023-04-07T09:15:53.190Z,932.50
2023-04-07T09:16:53.356Z,932.55
2023-04-07T09:17:53.236Z,932.58
2023-04-07T09:18:53.223Z,932.63
2023-04-07T09:19:53.244Z,932.63
2023-04-07T09:20:53.251Z,932.67
2023-04-07T09:21:53.267Z,932.62
2023-04-07T09:22:53.293Z,932.67
2023-04-07T09:23:53.298Z,932.66
2023-04-07T09:24:53.312Z,932.65
2023-04-07T09:25:53.337Z,932.68
2023-04-07T09:26:53.354Z,932.66
2023-04-07T09:27:53.363Z,932.71
2023-04-07T09:28:53.373Z,932.72
2023-04-07T09:29:53.395Z,932.76
2023-04-07T09:30:53.441Z,932.79
2023-04-07T09:31:53.450Z,932.74
2023-04-07T09:32:53.455Z,932.76
2023-04-07T09:33:53.463Z,932.80
2023-04-07T09:34:53.470Z,932.77
2023-04-07T09:35:53.540Z,932.76
2023-04-07T09:36:53.499Z,932.80
2023-04-07T09:37:53.510Z,932.81
2023-04-07T09:38:53.529Z,932.83
2023-04-07T09:39:53.536Z,932.84
2023-04-07T09:40:53.948Z,932.87
2023-04-07T09:41:53.582Z,932.89
2023-04-07T09:42:53.584Z,932.88
2023-04-07T09:43:53.605Z,932.89
2023-04-07T09:44:53.626Z,932.85
2023-04-07T09:45:53.666Z,932.85
2023-04-07T09:46:53.674Z,932.87
2023-04-07T09:47:53.742Z,932.90
2023-04-07T09:48:53.672Z,932.88
2023-04-07T09:49:53.700Z,932.87
2023-04-07T09:50:53.709Z,932.87
2023-04-07T09:51:53.718Z,932.93
2023-04-07T09:52:53.938Z,932.90
2023-04-07T09:53:53.755Z,932.88
2023-04-07T09:54:53.771Z,932.95
2023-04-07T09:55:53.779Z,932.96
2023-04-07T09:56:53.802Z,932.93
2023-04-07T09:57:53.810Z,932.93
2023-04-07T09:58:53.839Z,932.94
2023-04-07T09:59:53.843Z,932.93
2023-04-07T10:00:53.897Z,932.93
2023-04-07T10:01:56.366Z,932.90
2023-04-07T10:02:53.988Z,932.98
2023-04-07T10:03:53.939Z,933.00
2023-04-07T10:04:53.917Z,933.02
2023-04-07T10:05:53.932Z,933.07
2023-04-07T10:06:53.950Z,933.07
2023-04-07T10:07:53.970Z,933.08
2023-04-07T10:08:53.989Z,933.08
2023-04-07T10:09:54.000Z,933.10
2023-04-07T10:10:54.014Z,933.13
2023-04-07T10:11:54.131Z,933.16
2023-04-07T10:12:54.060Z,933.20
2023-04-07T10:13:54.054Z,933.21
2023-04-07T10:14:54.066Z,933.19
2023-04-07T10:15:54.082Z,933.20
2023-04-07T10:16:54.158Z,933.20
2023-04-07T10:17:54.174Z,933.21
2023-04-07T10:18:54.153Z,933.19
2023-04-07T10:19:54.149Z,933.14
2023-04-07T10:20:54.167Z,933.23
2023-04-07T10:21:54.183Z,933.24
2023-04-07T10:22:54.192Z,933.26
2023-04-07T10:23:54.204Z,933.27
2023-04-07T10:24:54.217Z,933.31
2023-04-07T10:25:54.234Z,933.30
2023-04-07T10:26:54.248Z,933.32
2023-04-07T10:27:54.271Z,933.31
2023-04-07T10:28:54.277Z,933.36
2023-04-07T10:29:54.300Z,933.38
2023-04-07T10:30:54.333Z,933.42
2023-04-07T10:31:54.330Z,933.44
2023-04-07T10:32:54.485Z,933.47
2023-04-07T10:33:54.359Z,933.49
2023-04-07T10:34:54.399Z,933.58
2023-04-07T10:35:54.408Z,933.53
2023-04-07T10:36:54.405Z,933.58
2023-04-07T10:37:54.473Z,933.55
2023-04-07T10:38:54.434Z,933.57
2023-04-07T10:39:54.442Z,933.55
2023-04-07T10:40:54.465Z,933.53
2023-04-07T10:41:54.472Z,933.53
2023-04-07T10:42:54.497Z,933.53
2023-04-07T10:43:54.503Z,933.53
2023-04-07T10:44:54.525Z,933.49
2023-04-07T10:45:54.669Z,933.52
2023-04-07T10:46:54.547Z,933.56
2023-04-07T10:47:54.647Z,933.46
2023-04-07T10:48:54.578Z,933.52
2023-04-07T10:49:54.600Z,933.54
2023-04-07T10:50:54.632Z,933.55
2023-04-07T10:51:54.632Z,933.58
2023-04-07T10:52:54.636Z,933.62
2023-04-07T10:53:54.653Z,933.62
2023-04-07T10:54:54.673Z,933.61
2023-04-07T10:55:54.692Z,933.63
2023-04-07T10:56:54.706Z,933.64
2023-04-07T10:57:54.721Z,933.62
2023-04-07T10:58:54.734Z,933.60
2023-04-07T10:59:55.571Z,933.58
2023-04-07T11:00:54.757Z,933.58
2023-04-07T11:01:54.871Z,933.55
2023-04-07T11:02:55.047Z,933.58
2023-04-07T11:03:54.961Z,933.62
2023-04-07T11:04:54.914Z,933.62
2023-04-07T11:05:54.847Z,933.63
2023-04-07T11:06:54.865Z,933.63
2023-04-07T11:07:54.870Z,933.65
2023-04-07T11:08:54.882Z,933.64
2023-04-07T11:09:54.898Z,933.68
2023-04-07T11:10:54.905Z,933.66
2023-04-07T11:11:54.920Z,933.68
2023-04-07T11:12:54.943Z,933.69
2023-04-07T11:13:54.971Z,933.71
2023-04-07T11:14:54.980Z,933.71
2023-04-07T11:15:55.019Z,933.72
2023-04-07T11:16:54.997Z,933.74
2023-04-07T11:17:55.051Z,933.72
2023-04-07T11:18:55.024Z,933.73
2023-04-07T11:19:55.053Z,933.76
2023-04-07T11:20:55.054Z,933.75
2023-04-07T11:21:55.079Z,933.77
2023-04-07T11:22:55.110Z,933.84
2023-04-07T11:23:55.098Z,933.76
2023-04-07T11:24:55.116Z,933.82
2023-04-07T11:25:55.136Z,933.85
2023-04-07T11:26:55.143Z,933.89
2023-04-07T11:27:55.161Z,933.91
2023-04-07T11:28:55.172Z,933.90
2023-04-07T11:29:55.192Z,933.90
2023-04-07T11:30:55.276Z,933.91
2023-04-07T11:31:55.230Z,933.92
2023-04-07T11:32:55.277Z,933.95
2023-04-07T11:33:55.252Z,933.97
2023-04-07T11:34:55.271Z,933.99
2023-04-07T11:35:55.424Z,933.94
2023-04-07T11:36:55.302Z,933.97
2023-04-07T11:37:55.317Z,933.93
2023-04-07T11:38:55.345Z,933.94
2023-04-07T11:39:55.351Z,933.98
2023-04-07T11:40:55.352Z,934.00
2023-04-07T11:41:55.378Z,933.99
2023-04-07T11:42:55.390Z,933.98
2023-04-07T11:43:55.397Z,934.01
2023-04-07T11:44:55.424Z,934.00
2023-04-07T11:45:55.428Z,934.00
2023-04-07T11:46:55.504Z,934.01
2023-04-07T11:47:55.510Z,934.06
2023-04-07T11:48:55.474Z,934.09
2023-04-07T11:49:55.514Z,934.11
2023-04-07T11:50:55.503Z,934.18
2023-04-07T11:51:55.527Z,934.17
2023-04-07T11:52:55.540Z,934.19
2023-04-07T11:53:55.559Z,934.22
2023-04-07T11:54:55.583Z,934.22
2023-04-07T11:55:55.578Z,934.23
2023-04-07T11:56:55.651Z,934.27
2023-04-07T11:57:55.606Z,934.27
2023-04-07T11:58:55.630Z,934.28
2023-04-07T11:59:55.643Z,934.30
2023-04-07T12:00:55.653Z,934.33
2023-04-07T12:01:57.876Z,934.34
2023-04-07T12:02:55.900Z,934.39
2023-04-07T12:03:55.836Z,934.43
2023-04-07T12:04:55.753Z,934.40
2023-04-07T12:05:55.736Z,934.40
2023-04-07T12:06:55.739Z,934.40
2023-04-07T12:07:55.767Z,934.43
2023-04-07T12:08:55.780Z,934.41
2023-04-07T12:09:55.785Z,934.42
2023-04-07T12:10:55.819Z,934.43
2023-04-07T12:11:55.822Z,934.43
2023-04-07T12:12:58.151Z,934.41
2023-04-07T12:13:55.853Z,934.40
2023-04-07T12:14:55.859Z,934.41
2023-04-07T12:15:55.874Z,934.41
2023-04-07T12:16:55.918Z,934.45
2023-04-07T12:17:56.015Z,934.45
2023-04-07T12:18:55.928Z,934.45
2023-04-07T12:19:55.948Z,934.46
2023-04-07T12:20:55.960Z,934.48
2023-04-07T12:21:55.988Z,934.45
2023-04-07T12:22:55.975Z,934.48
2023-04-07T12:23:55.998Z,934.44
2023-04-07T12:24:56.008Z,934.45
2023-04-07T12:25:56.023Z,934.49
2023-04-07T12:26:56.056Z,934.49
2023-04-07T12:27:56.052Z,934.49
2023-04-07T12:28:56.084Z,934.49